sensor_id;sensor_type;location;lat;lon;timestamp;pressure;altitude;pressure_sealevel;temperature;humidity
49585;BME280;35491;49.142;9.210;2023-04-28T17:13:46;99405.78;;;15.37;82.31
49585;BME280;35491;49.142;9.210;2023-04-28T17:15:03;99408.72;;;15.42;82.43
49585;BME280;35491;49.142;9.210;2023-04-28T17:16:14;99403.97;;;15.44;82.43
49585;BME280;35491;49.142;9.210;2023-04-28T17:17:23;99401.28;;;15.44;82.24
49585;BME280;35491;49.142;9.210;2023-04-28T17:18:28;99395.53;;;15.48;82.32
49585;BME280;35491;49.142;9.210;2023-04-28T17:19:32;99399.69;;;15.50;82.54
49585;BME280;35491;49.142;9.210;2023-04-28T17:20:33;99403.22;;;15.51;82.14
49585;BME280;35491;49.142;9.210;2023-04-28T17:21:38;99389.56;;;15.52;82.58
49585;BME280;35491;49.142;9.210;2023-04-28T17:22:39;99394.75;;;15.54;82.60
49585;BME280;35491;49.142;9.210;2023-04-28T17:23:44;99397.81;;;15.51;82.93
49585;BME280;35491;49.142;9.210;2023-04-28T17:24:48;99389.06;;;15.42;83.54
49585;BME280;35491;49.142;9.210;2023-04-28T17:34:50;99390.72;;;15.43;83.56
49585;BME280;35491;49.142;9.210;2023-04-28T17:41:14;99389.88;;;15.42;83.50
49585;BME280;35491;49.142;9.210;2023-04-28T17:42:19;99389.88;;;15.42;84.06
49585;BME280;35491;49.142;9.210;2023-04-28T17:43:23;99391.91;;;15.40;84.06
49585;BME280;35491;49.142;9.210;2023-04-28T17:44:26;99391.91;;;15.40;84.43
49585;BME280;35491;49.142;9.210;2023-04-28T17:45:31;99398.97;;;15.41;84.23
49585;BME280;35491;49.142;9.210;2023-04-28T17:46:51;99391.91;;;15.40;84.44
49585;BME280;35491;49.142;9.210;2023-04-28T17:47:58;99391.47;;;15.37;84.73
49585;BME280;35491;49.142;9.210;2023-04-28T17:49:05;99402.66;;;15.34;85.06
49585;BME280;35491;49.142;9.210;2023-04-28T17:50:11;99400.13;;;15.32;85.41
49585;BME280;35491;49.142;9.210;2023-04-28T17:51:24;99404.31;;;15.35;85.02
49585;BME280;35491;49.142;9.210;2023-04-28T17:52:30;99410.53;;;15.35;84.99
49585;BME280;35491;49.142;9.210;2023-04-28T17:53:36;99409.31;;;15.38;84.91
49585;BME280;35491;49.142;9.210;2023-04-28T17:54:39;99404.75;;;15.38;85.07
49585;BME280;35491;49.142;9.210;2023-04-28T17:55:45;99402.06;;;15.38;84.91
49585;BME280;35491;49.142;9.210;2023-04-28T17:56:53;99415.34;;;15.40;85.01
49585;BME280;35491;49.142;9.210;2023-04-28T17:58:03;99415.13;;;15.41;85.04
49585;BME280;35491;49.142;9.210;2023-04-28T17:59:14;99418.03;;;15.40;86.07
49585;BME280;35491;49.142;9.210;2023-04-28T18:00:21;99421.94;;;15.37;86.32
49585;BME280;35491;49.142;9.210;2023-04-28T18:01:29;99409.22;;;15.31;86.85
49585;BME280;35491;49.142;9.210;2023-04-28T18:02:38;99414.72;;;15.23;87.46
49585;BME280;35491;49.142;9.210;2023-04-28T18:03:42;99417.81;;;15.20;88.11
49585;BME280;35491;49.142;9.210;2023-04-28T18:04:52;99412.16;;;15.15;88.52
49585;BME280;35491;49.142;9.210;2023-04-28T18:06:03;99412.38;;;15.13;89.04
49585;BME280;35491;49.142;9.210;2023-04-28T18:07:14;99423.31;;;15.11;89.07
49585;BME280;35491;49.142;9.210;2023-04-28T18:08:21;99420.25;;;15.15;88.45
49585;BME280;35491;49.142;9.210;2023-04-28T18:09:25;99417.91;;;15.11;89.36
49585;BME280;35491;49.142;9.210;2023-04-28T18:10:33;99416.91;;;15.12;89.67
49585;BME280;35491;49.142;9.210;2023-04-28T18:11:39;99420.25;;;15.15;88.65
49585;BME280;35491;49.142;9.210;2023-04-28T18:12:46;99411.97;;;15.16;88.53
49585;BME280;35491;49.142;9.210;2023-04-28T18:13:55;99425.25;;;15.18;88.85
49585;BME280;35491;49.142;9.210;2023-04-28T18:15:01;99414.50;;;15.18;88.75
49585;BME280;35491;49.142;9.210;2023-04-28T18:16:04;99415.72;;;15.15;89.54
49585;BME280;35491;49.142;9.210;2023-04-28T18:17:16;99422.13;;;15.14;89.58
49585;BME280;35491;49.142;9.210;2023-04-28T18:18:23;99425.44;;;15.16;88.98
49585;BME280;35491;49.142;9.210;2023-04-28T18:19:36;99424.81;;;15.14;89.49
49585;BME280;35491;49.142;9.210;2023-04-28T18:20:42;99422.72;;;15.16;89.65
49585;BME280;35491;49.142;9.210;2023-04-28T18:21:49;99424.97;;;15.12;90.85
49585;BME280;35491;49.142;9.210;2023-04-28T18:22:58;99428.06;;;15.09;91.66
49585;BME280;35491;49.142;9.210;2023-04-28T18:24:02;99420.16;;;15.08;91.58
49585;BME280;35491;49.142;9.210;2023-04-28T18:25:08;99417.28;;;15.09;91.06
49585;BME280;35491;49.142;9.210;2023-04-28T18:26:16;99428.50;;;15.13;90.44
49585;BME280;35491;49.142;9.210;2023-04-28T18:27:19;99422.94;;;15.15;90.26
49585;BME280;35491;49.142;9.210;2023-04-28T18:28:27;99421.91;;;15.16;89.81
49585;BME280;35491;49.142;9.210;2023-04-28T18:29:31;99421.72;;;15.17;89.92
49585;BME280;35491;49.142;9.210;2023-04-28T18:30:42;99421.53;;;15.19;89.60
49585;BME280;35491;49.142;9.210;2023-04-28T18:31:45;99415.50;;;15.17;89.83
49585;BME280;35491;49.142;9.210;2023-04-28T18:32:56;99415.97;;;15.20;89.40
49585;BME280;35491;49.142;9.210;2023-04-28T18:35:26;99429.41;;;15.20;90.25
49585;BME280;35491;49.142;9.210;2023-04-28T18:36:32;99435.66;;;15.21;89.97
49585;BME280;35491;49.142;9.210;2023-04-28T18:50:41;99443.84;;;15.34;89.09
49585;BME280;35491;49.142;9.210;2023-04-28T18:51:48;99442.63;;;15.37;88.95
49585;BME280;35491;49.142;9.210;2023-04-28T18:52:58;99446.19;;;15.37;89.17
49585;BME280;35491;49.142;9.210;2023-04-28T18:54:05;99445.16;;;15.38;89.36
49585;BME280;35491;49.142;9.210;2023-04-28T18:55:16;99441.75;;;15.29;89.55
49585;BME280;35491;49.142;9.210;2023-04-28T18:56:23;99436.91;;;15.25;90.51
49585;BME280;35491;49.142;9.210;2023-04-28T18:57:29;99445.38;;;15.22;91.59
49585;BME280;35491;49.142;9.210;2023-04-28T18:58:32;99443.16;;;15.25;90.99
49585;BME280;35491;49.142;9.210;2023-04-28T18:59:41;99447.69;;;15.25;91.05
49585;BME280;35491;49.142;9.210;2023-04-28T19:00:44;99447.50;;;15.26;91.13
49585;BME280;35491;49.142;9.210;2023-04-28T19:01:56;99448.06;;;15.22;92.12
49585;BME280;35491;49.142;9.210;2023-04-28T19:03:02;99445.94;;;15.17;92.69
49585;BME280;35491;49.142;9.210;2023-04-28T19:04:09;99446.13;;;15.16;92.89
49585;BME280;35491;49.142;9.210;2023-04-28T19:05:12;99450.50;;;15.17;92.50
49585;BME280;35491;49.142;9.210;2023-04-28T19:06:25;99447.53;;;15.11;93.17
49585;BME280;35491;49.142;9.210;2023-04-28T19:07:32;99452.91;;;15.11;92.71
49585;BME280;35491;49.142;9.210;2023-04-28T19:08:42;99450.50;;;15.17;92.32
49585;BME280;35491;49.142;9.210;2023-04-28T19:09:45;99450.13;;;15.20;91.75
49585;BME280;35491;49.142;9.210;2023-04-28T19:10:53;99452.44;;;15.23;91.93
49585;BME280;35491;49.142;9.210;2023-04-28T19:12:05;99461.81;;;15.27;91.38
49585;BME280;35491;49.142;9.210;2023-04-28T19:13:08;99457.06;;;15.29;91.37
49585;BME280;35491;49.142;9.210;2023-04-28T19:14:14;99454.38;;;15.29;91.28
49585;BME280;35491;49.142;9.210;2023-04-28T19:15:16;99457.69;;;15.31;90.99
49585;BME280;35491;49.142;9.210;2023-04-28T19:16:23;99456.88;;;15.31;91.02
49585;BME280;35491;49.142;9.210;2023-04-28T19:17:33;99451.69;;;15.29;91.51
49585;BME280;35491;49.142;9.210;2023-04-28T19:18:36;99460.50;;;15.23;92.58
49585;BME280;35491;49.142;9.210;2023-04-28T19:19:49;99460.50;;;15.23;91.97
49585;BME280;35491;49.142;9.210;2023-04-28T19:20:59;99462.19;;;15.24;91.61
49585;BME280;35491;49.142;9.210;2023-04-28T19:22:08;99464.03;;;15.23;91.97
49585;BME280;35491;49.142;9.210;2023-04-28T19:23:33;99465.06;;;15.22;91.65
49585;BME280;35491;49.142;9.210;2023-04-28T19:24:39;99467.56;;;15.24;91.39
49585;BME280;35491;49.142;9.210;2023-04-28T19:25:44;99467.56;;;15.24;91.38
49585;BME280;35491;49.142;9.210;2023-04-28T19:26:51;99469.59;;;15.22;92.16
49585;BME280;35491;49.142;9.210;2023-04-28T19:27:58;99462.56;;;15.21;92.01
49585;BME280;35491;49.142;9.210;2023-04-28T19:29:05;99468.31;;;15.18;91.64
49585;BME280;35491;49.142;9.210;2023-04-28T19:30:17;99463.69;;;15.11;92.22
49585;BME280;35491;49.142;9.210;2023-04-28T19:31:25;99465.75;;;15.09;92.33
49585;BME280;35491;49.142;9.210;2023-04-28T19:32:31;99470.69;;;15.06;92.31
49585;BME280;35491;49.142;9.210;2023-04-28T19:33:35;99475.88;;;15.07;92.26
49585;BME280;35491;49.142;9.210;2023-04-28T19:34:41;99479.56;;;15.06;91.92
49585;BME280;35491;49.142;9.210;2023-04-28T19:35:44;99469.81;;;15.05;92.14
49585;BME280;35491;49.142;9.210;2023-04-28T19:36:50;99481.44;;;15.06;91.90
49585;BME280;35491;49.142;9.210;2023-04-28T19:37:59;99482.63;;;15.03;91.89
49585;BME280;35491;49.142;9.210;2023-04-28T19:39:05;99480.97;;;15.02;91.99
49585;BME280;35491;49.142;9.210;2023-04-28T19:40:12;99481.72;;;14.96;92.21
49585;BME280;35491;49.142;9.210;2023-04-28T19:41:18;99479.69;;;14.98;92.56
49585;BME280;35491;49.142;9.210;2023-04-28T19:42:23;99475.97;;;14.99;92.11
49585;BME280;35491;49.142;9.210;2023-04-28T19:43:29;99470.38;;;15.01;91.96
49585;BME280;35491;49.142;9.210;2023-04-28T19:44:33;99471.16;;;14.94;92.51
49585;BME280;35491;49.142;9.210;2023-04-28T19:45:40;99472.53;;;14.90;93.63
49585;BME280;35491;49.142;9.210;2023-04-28T19:46:50;99472.72;;;14.89;93.81
49585;BME280;35491;49.142;9.210;2023-04-28T19:47:57;99475.88;;;14.92;93.80
49585;BME280;35491;49.142;9.210;2023-04-28T19:49:02;99466.41;;;14.96;93.14
49585;BME280;35491;49.142;9.210;2023-04-28T19:50:06;99473.66;;;14.96;92.75
49585;BME280;35491;49.142;9.210;2023-04-28T19:51:12;99477.00;;;14.98;93.08
49585;BME280;35491;49.142;9.210;2023-04-28T19:52:19;99471.59;;;14.98;92.94
49585;BME280;35491;49.142;9.210;2023-04-28T19:53:31;99471.41;;;15.00;92.43
49585;BME280;35491;49.142;9.210;2023-04-28T19:54:41;99478.66;;;14.99;92.59
49585;BME280;35491;49.142;9.210;2023-04-28T19:55:47;99475.13;;;14.98;92.54
49585;BME280;35491;49.142;9.210;2023-04-28T19:56:54;99492.47;;;14.96;93.47
49585;BME280;35491;49.142;9.210;2023-04-28T19:57:57;99488.78;;;14.97;92.97
49585;BME280;35491;49.142;9.210;2023-04-28T19:59:08;99487.09;;;14.96;93.43
49585;BME280;35491;49.142;9.210;2023-04-28T20:00:23;99483.28;;;14.90;93.14
49585;BME280;35491;49.142;9.210;2023-04-28T20:01:34;99480.81;;;14.89;92.85
49585;BME280;35491;49.142;9.210;2023-04-28T20:02:42;99484.72;;;14.86;93.75
49585;BME280;35491;49.142;9.210;2023-04-28T20:03:48;99490.91;;;14.87;93.54
49585;BME280;35491;49.142;9.210;2023-04-28T20:04:52;99501.22;;;14.83;94.06
49585;BME280;35491;49.142;9.210;2023-04-28T20:05:57;99505.47;;;14.77;93.74
49585;BME280;35491;49.142;9.210;2023-04-28T20:07:15;99506.50;;;14.76;93.91
49585;BME280;35491;49.142;9.210;2023-04-28T20:08:21;99502.34;;;14.74;93.34
49585;BME280;35491;49.142;9.210;2023-04-28T20:09:35;99512.16;;;14.66;94.93
49585;BME280;35491;49.142;9.210;2023-04-28T20:10:43;99507.31;;;14.62;94.84
49585;BME280;35491;49.142;9.210;2023-04-28T20:11:50;99505.63;;;14.61;94.63
49585;BME280;35491;49.142;9.210;2023-04-28T20:12:58;99503.31;;;14.58;94.78
49585;BME280;35491;49.142;9.210;2023-04-28T20:14:14;99506.84;;;14.58;94.51
49585;BME280;35491;49.142;9.210;2023-04-28T20:15:22;99510.44;;;14.50;94.97
49585;BME280;35491;49.142;9.210;2023-04-28T20:16:25;99499.59;;;14.44;96.02
49585;BME280;35491;49.142;9.210;2023-04-28T20:17:31;99500.69;;;14.49;95.29
49585;BME280;35491;49.142;9.210;2023-04-28T20:18:39;99494.13;;;14.52;94.67
49585;BME280;35491;49.142;9.210;2023-04-28T20:19:46;99502.72;;;14.47;94.50
49585;BME280;35491;49.142;9.210;2023-04-28T20:20:51;99505.41;;;14.47;95.08
49585;BME280;35491;49.142;9.210;2023-04-28T20:21:59;99509.59;;;14.50;94.78
49585;BME280;35491;49.142;9.210;2023-04-28T20:23:04;99506.09;;;14.49;94.46
49585;BME280;35491;49.142;9.210;2023-04-28T20:24:13;99501.06;;;14.46;94.14
49585;BME280;35491;49.142;9.210;2023-04-28T20:25:20;99497.91;;;14.43;94.87
49585;BME280;35491;49.142;9.210;2023-04-28T20:26:27;99504.75;;;14.45;94.80
49585;BME280;35491;49.142;9.210;2023-04-28T20:27:34;99506.09;;;14.49;94.08
49585;BME280;35491;49.142;9.210;2023-04-28T20:28:42;99509.59;;;14.50;93.60
49585;BME280;35491;49.142;9.210;2023-04-28T20:29:49;99502.19;;;14.52;93.45
49585;BME280;35491;49.142;9.210;2023-04-28T20:30:58;99503.84;;;14.53;93.50
49585;BME280;35491;49.142;9.210;2023-04-28T20:32:02;99502.19;;;14.52;93.53
49585;BME280;35491;49.142;9.210;2023-04-28T20:33:14;99492.28;;;14.53;93.17
49585;BME280;35491;49.142;9.210;2023-04-28T20:34:21;99493.75;;;14.55;93.30
49585;BME280;35491;49.142;9.210;2023-04-28T20:35:26;99498.13;;;14.56;93.33
49585;BME280;35491;49.142;9.210;2023-04-28T20:36:37;99499.59;;;14.59;93.13
49585;BME280;35491;49.142;9.210;2023-04-28T20:37:40;99496.72;;;14.60;92.53
49585;BME280;35491;49.142;9.210;2023-04-28T20:38:47;99497.94;;;14.58;92.56
49585;BME280;35491;49.142;9.210;2023-04-28T20:39:53;99504.50;;;14.55;93.25
49585;BME280;35491;49.142;9.210;2023-04-28T20:41:04;99502.66;;;14.56;93.04
49585;BME280;35491;49.142;9.210;2023-04-28T20:42:10;99495.63;;;14.55;92.71
49585;BME280;35491;49.142;9.210;2023-04-28T20:43:22;99501.00;;;14.55;93.00
49585;BME280;35491;49.142;9.210;2023-04-28T20:44:27;99501.81;;;14.55;92.76
49585;BME280;35491;49.142;9.210;2023-04-28T20:45:37;99497.28;;;14.56;92.70
49585;BME280;35491;49.142;9.210;2023-04-28T20:46:53;99496.44;;;14.55;93.00
49585;BME280;35491;49.142;9.210;2023-04-28T20:47:59;99494.78;;;14.54;93.14
49585;BME280;35491;49.142;9.210;2023-04-28T20:49:06;99496.25;;;14.57;92.82
49585;BME280;35491;49.142;9.210;2023-04-28T20:50:13;99493.09;;;14.53;92.77
49585;BME280;35491;49.142;9.210;2023-04-28T20:51:19;99487.56;;;14.55;92.76
49585;BME280;35491;49.142;9.210;2023-04-28T20:52:25;99479.50;;;14.55;92.96
49585;BME280;35491;49.142;9.210;2023-04-28T20:53:31;99489.84;;;14.58;92.83
49585;BME280;35491;49.142;9.210;2023-04-28T20:54:34;99477.44;;;14.57;92.88
49585;BME280;35491;49.142;9.210;2023-04-28T20:55:41;99490.25;;;14.55;93.08
49585;BME280;35491;49.142;9.210;2023-04-28T20:56:51;99480.31;;;14.55;93.14
49585;BME280;35491;49.142;9.210;2023-04-28T20:58:10;99483.19;;;14.54;93.26
49585;BME280;35491;49.142;9.210;2023-04-28T20:59:12;99479.00;;;14.51;93.08
49585;BME280;35491;49.142;9.210;2023-04-28T21:00:20;99483.56;;;14.50;93.33
49585;BME280;35491;49.142;9.210;2023-04-28T21:01:21;99481.22;;;14.47;93.08
49585;BME280;35491;49.142;9.210;2023-04-28T21:02:26;99483.25;;;14.45;93.33
49585;BME280;35491;49.142;9.210;2023-04-28T21:03:39;99485.94;;;14.45;93.76
49585;BME280;35491;49.142;9.210;2023-04-28T21:04:45;99484.75;;;14.48;93.38
49585;BME280;35491;49.142;9.210;2023-04-28T21:05:49;99484.75;;;14.48;92.97
49585;BME280;35491;49.142;9.210;2023-04-28T21:06:55;99483.75;;;14.49;93.18
49585;BME280;35491;49.142;9.210;2023-04-28T21:08:00;99481.22;;;14.47;93.09
49585;BME280;35491;49.142;9.210;2023-04-28T21:09:09;99489.28;;;14.47;93.14
49585;BME280;35491;49.142;9.210;2023-04-28T21:10:21;99490.31;;;14.46;92.95
49585;BME280;35491;49.142;9.210;2023-04-28T21:11:31;99483.44;;;14.44;93.28
49585;BME280;35491;49.142;9.210;2023-04-28T21:12:45;99489.19;;;14.41;93.28
49585;BME280;35491;49.142;9.210;2023-04-28T21:13:46;99483.63;;;14.42;93.54
49585;BME280;35491;49.142;9.210;2023-04-28T21:14:50;99489.19;;;14.41;93.67
49585;BME280;35491;49.142;9.210;2023-04-28T21:15:51;99485.41;;;14.35;93.31
49585;BME280;35491;49.142;9.210;2023-04-28T21:16:55;99484.53;;;14.34;93.72
49585;BME280;35491;49.142;9.210;2023-04-28T21:17:56;99485.75;;;14.32;93.96
49585;BME280;35491;49.142;9.210;2023-04-28T21:19:01;99484.28;;;14.29;94.33
49585;BME280;35491;49.142;9.210;2023-04-28T21:20:03;99483.63;;;14.27;94.83
49585;BME280;35491;49.142;9.210;2023-04-28T21:21:07;99488.13;;;14.27;94.59
49585;BME280;35491;49.142;9.210;2023-04-28T21:22:08;99490.19;;;14.25;94.98
49585;BME280;35491;49.142;9.210;2023-04-28T21:23:13;99479.44;;;14.25;94.55
49585;BME280;35491;49.142;9.210;2023-04-28T21:24:14;99477.78;;;14.24;94.93
49585;BME280;35491;49.142;9.210;2023-04-28T21:25:18;99489.91;;;14.19;95.33
49585;BME280;35491;49.142;9.210;2023-04-28T21:26:20;99482.69;;;14.20;95.61
49585;BME280;35491;49.142;9.210;2023-04-28T21:27:24;99490.28;;;14.16;95.62
49585;BME280;35491;49.142;9.210;2023-04-28T21:28:27;99491.66;;;14.12;95.81
49585;BME280;35491;49.142;9.210;2023-04-28T21:29:33;99485.91;;;14.15;96.09
49585;BME280;35491;49.142;9.210;2023-04-28T21:30:37;99487.75;;;14.15;96.28
49585;BME280;35491;49.142;9.210;2023-04-28T21:31:38;99496.66;;;14.15;96.19
49585;BME280;35491;49.142;9.210;2023-04-28T21:32:42;99495.16;;;14.13;96.41
49585;BME280;35491;49.142;9.210;2023-04-28T21:33:43;99494.53;;;14.11;96.18
49585;BME280;35491;49.142;9.210;2023-04-28T21:34:46;99489.69;;;14.06;96.92
49585;BME280;35491;49.142;9.210;2023-04-28T21:35:48;99489.38;;;14.01;97.69
49585;BME280;35491;49.142;9.210;2023-04-28T21:36:52;99495.13;;;13.98;97.94
49585;BME280;35491;49.142;9.210;2023-04-28T21:37:53;99493.47;;;13.97;97.86
49585;BME280;35491;49.142;9.210;2023-04-28T21:38:56;99492.81;;;13.95;98.34
49585;BME280;35491;49.142;9.210;2023-04-28T21:39:58;99494.16;;;13.91;98.68
49585;BME280;35491;49.142;9.210;2023-04-28T21:41:02;99485.09;;;13.92;98.55
49585;BME280;35491;49.142;9.210;2023-04-28T21:42:07;99496.22;;;13.88;98.77
49585;BME280;35491;49.142;9.210;2023-04-28T21:43:08;99490.66;;;13.90;98.80
49585;BME280;35491;49.142;9.210;2023-04-28T21:44:14;99483.59;;;13.89;98.23
49585;BME280;35491;49.142;9.210;2023-04-28T21:45:19;99498.25;;;13.86;98.59
49585;BME280;35491;49.142;9.210;2023-04-28T21:46:22;99493.22;;;13.83;98.93
49585;BME280;35491;49.142;9.210;2023-04-28T21:47:25;99493.88;;;13.85;99.12
49585;BME280;35491;49.142;9.210;2023-04-28T21:48:27;99489.53;;;13.84;98.93
49585;BME280;35491;49.142;9.210;2023-04-28T21:49:31;99494.41;;;13.81;98.54
49585;BME280;35491;49.142;9.210;2023-04-28T21:50:33;99490.72;;;13.82;98.88
49585;BME280;35491;49.142;9.210;2023-04-28T21:51:37;99487.84;;;13.83;98.59
49585;BME280;35491;49.142;9.210;2023-04-28T21:52:41;99486.38;;;13.81;98.81
49585;BME280;35491;49.142;9.210;2023-04-28T21:53:42;99482.81;;;13.80;99.18
49585;BME280;35491;49.142;9.210;2023-04-28T21:54:46;99487.38;;;13.80;99.08
49585;BME280;35491;49.142;9.210;2023-04-28T21:55:47;99488.19;;;13.80;98.86
49585;BME280;35491;49.142;9.210;2023-04-28T21:56:51;99487.38;;;13.80;99.55
49585;BME280;35491;49.142;9.210;2023-04-28T21:57:52;99488.19;;;13.80;98.97
49585;BME280;35491;49.142;9.210;2023-04-28T21:58:56;99488.19;;;13.80;99.18
49585;BME280;35491;49.142;9.210;2023-04-28T22:00:00;99486.53;;;13.79;99.19
49585;BME280;35491;49.142;9.210;2023-04-28T22:01:05;99480.81;;;13.82;99.12
49585;BME280;35491;49.142;9.210;2023-04-28T22:02:07;99484.81;;;13.86;98.65
49585;BME280;35491;49.142;9.210;2023-04-28T22:03:11;99491.19;;;13.85;98.62
49585;BME280;35491;49.142;9.210;2023-04-28T22:04:13;99493.22;;;13.83;99.48
49585;BME280;35491;49.142;9.210;2023-04-28T22:05:17;99495.72;;;13.85;99.14
49585;BME280;35491;49.142;9.210;2023-04-28T22:06:18;99488.31;;;13.87;98.67
49585;BME280;35491;49.142;9.210;2023-04-28T22:07:22;99502.75;;;13.86;98.84
49585;BME280;35491;49.142;9.210;2023-04-28T22:08:25;99490.34;;;13.85;99.14
49585;BME280;35491;49.142;9.210;2023-04-28T22:09:29;99492.03;;;13.86;98.88
49585;BME280;35491;49.142;9.210;2023-04-28T22:10:31;99490.53;;;13.83;99.02
49585;BME280;35491;49.142;9.210;2023-04-28T22:11:35;99486.16;;;13.82;99.13
49585;BME280;35491;49.142;9.210;2023-04-28T22:12:36;99495.25;;;13.81;99.32
49585;BME280;35491;49.142;9.210;2023-04-28T22:13:40;99487.03;;;13.83;99.08
49585;BME280;35491;49.142;9.210;2023-04-28T22:14:41;99498.78;;;13.82;99.01
49585;BME280;35491;49.142;9.210;2023-04-28T22:15:47;99499.25;;;13.85;98.58
49585;BME280;35491;49.142;9.210;2023-04-28T22:16:49;99494.22;;;13.82;98.63
49585;BME280;35491;49.142;9.210;2023-04-28T22:17:53;99492.56;;;13.81;98.64
49585;BME280;35491;49.142;9.210;2023-04-28T22:18:54;99492.22;;;13.84;98.46
49585;BME280;35491;49.142;9.210;2023-04-28T22:19:58;99490.72;;;13.82;98.82
49585;BME280;35491;49.142;9.210;2023-04-28T22:20:59;99489.22;;;13.79;99.52
49585;BME280;35491;49.142;9.210;2023-04-28T22:22:03;99485.69;;;13.79;99.56
49585;BME280;35491;49.142;9.210;2023-04-28T22:23:05;99491.91;;;13.79;99.64
49585;BME280;35491;49.142;9.210;2023-04-28T22:24:08;99492.75;;;13.80;99.51
49585;BME280;35491;49.142;9.210;2023-04-28T22:25:09;99490.72;;;13.82;99.02
49585;BME280;35491;49.142;9.210;2023-04-28T22:26:13;99490.88;;;13.80;98.90
49585;BME280;35491;49.142;9.210;2023-04-28T22:27:14;99488.19;;;13.80;99.42
49585;BME280;35491;49.142;9.210;2023-04-28T22:28:18;99494.91;;;13.84;98.86
49585;BME280;35491;49.142;9.210;2023-04-28T22:29:19;99491.91;;;13.79;99.20
49585;BME280;35491;49.142;9.210;2023-04-28T22:30:23;99487.72;;;13.77;99.22
49585;BME280;35491;49.142;9.210;2023-04-28T22:31:27;99487.25;;;13.73;99.75
49585;BME280;35491;49.142;9.210;2023-04-28T22:32:31;99490.25;;;13.78;99.80
49585;BME280;35491;49.142;9.210;2023-04-28T22:33:32;99488.19;;;13.80;99.18
49585;BME280;35491;49.142;9.210;2023-04-28T22:34:38;99486.03;;;13.76;100.00
49585;BME280;35491;49.142;9.210;2023-04-28T22:35:42;99487.38;;;13.80;100.00
49585;BME280;35491;49.142;9.210;2023-04-28T22:36:43;99493.56;;;13.80;100.00
49585;BME280;35491;49.142;9.210;2023-04-28T22:37:47;99496.09;;;13.82;99.74
49585;BME280;35491;49.142;9.210;2023-04-28T22:38:48;99488.50;;;13.85;99.27
49585;BME280;35491;49.142;9.210;2023-04-28T22:39:52;99489.81;;;13.89;98.87
49585;BME280;35491;49.142;9.210;2023-04-28T22:40:56;99491.94;;;13.94;98.61
49585;BME280;35491;49.142;9.210;2023-04-28T22:41:59;99492.34;;;13.91;98.92
49585;BME280;35491;49.142;9.210;2023-04-28T22:43:00;99494.47;;;13.96;99.04
49585;BME280;35491;49.142;9.210;2023-04-28T22:44:04;99498.84;;;13.97;98.66
49585;BME280;35491;49.142;9.210;2023-04-28T22:45:06;99491.06;;;14.02;97.96
49585;BME280;35491;49.142;9.210;2023-04-28T22:46:10;99497.75;;;14.06;97.93
49585;BME280;35491;49.142;9.210;2023-04-28T22:47:16;99497.38;;;14.09;97.51
49585;BME280;35491;49.142;9.210;2023-04-28T22:48:17;99490.81;;;14.12;97.07
49585;BME280;35491;49.142;9.210;2023-04-28T22:49:21;99488.97;;;14.12;96.62
49585;BME280;35491;49.142;9.210;2023-04-28T22:50:25;99493.31;;;14.13;96.77
49585;BME280;35491;49.142;9.210;2023-04-28T22:51:31;99491.09;;;14.17;96.78
49585;BME280;35491;49.142;9.210;2023-04-28T22:52:32;99488.22;;;14.18;96.50
49585;BME280;35491;49.142;9.210;2023-04-28T22:53:36;99493.44;;;14.20;96.23
49585;BME280;35491;49.142;9.210;2023-04-28T22:54:37;99484.16;;;14.23;96.01
49585;BME280;35491;49.142;9.210;2023-04-28T22:55:41;99494.06;;;14.22;95.76
49585;BME280;35491;49.142;9.210;2023-04-28T22:56:42;99490.56;;;14.22;96.16
49585;BME280;35491;49.142;9.210;2023-04-28T22:57:46;99484.81;;;14.25;95.94
49585;BME280;35491;49.142;9.210;2023-04-28T22:58:50;99490.00;;;14.26;95.51
49585;BME280;35491;49.142;9.210;2023-04-28T22:59:51;99494.38;;;14.27;95.26
49585;BME280;35491;49.142;9.210;2023-04-28T23:00:58;99492.69;;;14.26;95.35
49585;BME280;35491;49.142;9.210;2023-04-28T23:01:59;99490.81;;;14.27;95.00
49585;BME280;35491;49.142;9.210;2023-04-28T23:03:06;99488.78;;;14.29;94.80
49585;BME280;35491;49.142;9.210;2023-04-28T23:04:07;99502.44;;;14.27;94.52
49585;BME280;35491;49.142;9.210;2023-04-28T23:05:10;99493.44;;;14.20;93.86
49585;BME280;35491;49.142;9.210;2023-04-28T23:06:14;99492.47;;;14.13;93.57
49585;BME280;35491;49.142;9.210;2023-04-28T23:07:15;99497.22;;;14.11;94.41
49585;BME280;35491;49.142;9.210;2023-04-28T23:08:19;99497.75;;;14.06;94.29
49585;BME280;35491;49.142;9.210;2023-04-28T23:09:20;99497.28;;;14.02;94.80
49585;BME280;35491;49.142;9.210;2023-04-28T23:10:24;99493.75;;;14.02;95.01
49585;BME280;35491;49.142;9.210;2023-04-28T23:11:25;99496.44;;;14.02;94.92
49585;BME280;35491;49.142;9.210;2023-04-28T23:12:29;99496.44;;;14.02;94.31
49585;BME280;35491;49.142;9.210;2023-04-28T23:13:33;99495.78;;;14.00;94.44
49585;BME280;35491;49.142;9.210;2023-04-28T23:14:34;99503.84;;;14.00;94.79
49585;BME280;35491;49.142;9.210;2023-04-28T23:15:38;99501.16;;;14.00;94.36
49585;BME280;35491;49.142;9.210;2023-04-28T23:16:39;99500.50;;;13.98;94.83
49585;BME280;35491;49.142;9.210;2023-04-28T23:17:43;99500.50;;;13.98;94.83
49585;BME280;35491;49.142;9.210;2023-04-28T23:18:47;99505.50;;;14.01;94.92
49585;BME280;35491;49.142;9.210;2023-04-28T23:19:50;99503.66;;;14.01;94.88
49585;BME280;35491;49.142;9.210;2023-04-28T23:20:52;99505.50;;;14.01;94.38
49585;BME280;35491;49.142;9.210;2023-04-28T23:21:55;99498.28;;;14.01;94.68
49585;BME280;35491;49.142;9.210;2023-04-28T23:22:56;99506.16;;;14.03;94.48
49585;BME280;35491;49.142;9.210;2023-04-28T23:24:00;99508.84;;;14.03;94.33
49585;BME280;35491;49.142;9.210;2023-04-28T23:25:02;99513.56;;;14.01;94.01
49585;BME280;35491;49.142;9.210;2023-04-28T23:26:05;99507.19;;;14.02;94.40
49585;BME280;35491;49.142;9.210;2023-04-28T23:27:07;99505.16;;;14.04;94.59
49585;BME280;35491;49.142;9.210;2023-04-28T23:28:10;99508.19;;;14.01;94.29
49585;BME280;35491;49.142;9.210;2023-04-28T23:29:12;99509.22;;;14.00;94.61